• Join FlightAware (Why Join?)
  • Login
  • US Flag 
03:43PM EDT


 

Airport Tracker/Info


-or-


 

Live Flight TrackerFlight Track Log ✈ N560ML ✈ 25-Jan-2014 ✈ KAOH - KAPF

Flight Track Log - Related Links

Times and Time Zones

All times are in EST time to prevent confusion due to time zone crossing. See the N560ML flight status page for this flight to view local times or setup timezone preferences in your user account.

Time Position Orientation Groundspeed Altitude Reporting Facility
EST Latitude Longitude Course Direction KTS MPH feet Rate Location/Type
04:28PM 40.6556 -84.0603 180° South 214 246 6,300  Level Indianapolis Center
04:29PM 40.5928 -84.0625 182° South 223 257 10,200 3,960 Climbing Indianapolis Center
04:30PM 40.5078 -84.0669 182° South 295 339 14,400 4,080 Climbing Indianapolis Center
04:31PM 40.4158 -84.0714 182° South 327 376 18,500 3,660 Climbing Indianapolis Center
04:32PM 40.0530 -84.0500 180° South  Level FlightAware Approximate
04:32PM 40.3161 -84.0750 182° South 346 398 21,900  Level Indianapolis Center
04:33PM 39.9448 -84.0500 180° South  Level FlightAware Approximate
04:33PM 40.2147 -84.0781 181° South 368 423 24,200  Level Indianapolis Center
04:34PM 40.1042 -84.0819 182° South 393 452 26,200 2,340 Climbing Indianapolis Center
04:35PM 39.9711 -84.0864 181° South 400 460 29,000 2,340 Climbing Indianapolis Center
04:36PM 39.8614 -84.0906 182° South 398 458 31,100 2,040 Climbing Indianapolis Center
04:37PM 39.7581 -84.0931 181° South 381 438 33,200 2,040 Climbing Indianapolis Center
04:38PM 39.6603 -84.0972 182° South 359 413 35,300 1,920 Climbing Indianapolis Center
04:39PM 39.5697 -84.1008 182° South 335 386 37,200 1,080 Climbing Indianapolis Center
04:40PM 39.4836 -84.1036 181° South 315 362 37,500 120 Climbing Indianapolis Center
04:41PM 39.3864 -84.1069 182° South 345 397 37,500  Level Indianapolis Center
04:42PM 39.2797 -84.1106 182° South 378 435 37,600 240 Climbing Indianapolis Center
04:44PM 39.1428 -84.1156 182° South 407 468 38,000 420 Climbing Indianapolis Center
04:45PM 39.0286 -84.1192 181° South 413 475 38,500 480 Climbing Indianapolis Center
04:46PM 38.9131 -84.1231 182° South 415 478 39,100 540 Climbing Indianapolis Center
04:47PM 38.7986 -84.1281 182° South 412 474 39,600 420 Climbing Indianapolis Center
04:48PM 38.6853 -84.1311 181° South 410 472 40,000 180 Climbing Indianapolis Center
04:49PM 38.5606 -84.1347 181° South 411 473 40,000  Level Indianapolis Center
04:50PM 38.4442 -84.1386 181° South 416 479 40,000  Level Indianapolis Center
04:51PM 38.3272 -84.1425 181° South 419 482 40,000  Level Indianapolis Center
04:52PM 38.2100 -84.1453 181° South 420 483 40,000  Level Indianapolis Center
04:53PM 38.0933 -84.1508 182° South 418 481 40,000  Level Indianapolis Center
04:54PM 37.9747 -84.1539 181° South 423 487 40,000  Level Indianapolis Center
04:55PM 37.8561 -84.1586 182° South 425 489 40,000  Level Indianapolis Center
04:56PM 37.7386 -84.1600 181° South 423 487 40,000  Level Indianapolis Center
04:57PM 37.5992 -84.1667 182° South 427 491 40,000  Level Indianapolis Center
04:58PM 37.4803 -84.1700 181° South 428 493 40,000  Level Indianapolis Center
04:59PM 37.3611 -84.1733 181° South 426 490 40,000  Level Indianapolis Center
05:00PM 37.2442 -84.1781 182° South 422 486 40,000  Level Indianapolis Center
05:01PM 37.1244 -84.1817 181° South 428 493 40,000  Level Indianapolis Center
05:02PM 37.0061 -84.1850 181° South 426 490 40,000  Level Indianapolis Center
05:03PM 36.8872 -84.1897 182° South 428 493 40,000  Level Indianapolis Center
05:04PM 36.7675 -84.1931 181° South 430 495 40,000  Level Indianapolis Center
05:05PM 36.6475 -84.1961 181° South 431 496 40,000  Level Indianapolis Center
05:06PM 36.5094 -84.2011 182° South 428 493 40,000  Level Indianapolis Center
05:07PM 36.3867 -84.2044 181° South 435 501 40,100 300 Climbing Indianapolis Center
05:08PM 36.2661 -84.2081 181° South 434 499 40,700 420 Climbing Indianapolis Center
05:09PM 36.1494 -84.2122 182° South 422 486 41,000 120 Climbing Indianapolis Center
05:10PM 36.0019 -84.2183 182° South 434 499 41,000  Level Atlanta Center
05:11PM 35.8831 -84.2208 181° South 429 494 41,000  Level Atlanta Center
05:12PM 35.7642 -84.2231 181° South 429 494 41,000  Level Atlanta Center
05:13PM 35.6450 -84.2303 183° South 423 487 41,000  Level Atlanta Center
05:14PM 35.5261 -84.2328 181° South 423 487 41,000  Level Atlanta Center
05:15PM 35.4072 -84.2375 182° South 423 487 41,000  Level Atlanta Center
05:16PM 35.2883 -84.2422 182° South 423 487 41,000  Level Atlanta Center
05:17PM 35.1694 -84.2444 181° South 423 487 41,000  Level Atlanta Center
05:18PM 35.0483 -84.2467 181° South 423 487 41,000  Level Atlanta Center
05:19PM 34.9567 -84.2492 181° South 423 487 41,000  Level Atlanta Center
05:20PM 34.8272 -84.2489 180° South 423 487 41,000 180 Level Atlanta Center
05:21PM 34.7125 -84.2561 183° South 423 487 41,400 480 Climbing Atlanta Center
05:22PM 34.5956 -84.2583 181° South 423 487 42,000 600 Climbing Atlanta Center
05:23PM 34.4808 -84.2606 181° South 417 480 42,600 480 Climbing Atlanta Center
05:24PM 34.3681 -84.2653 182° South 417 480 43,000 180 Climbing Atlanta Center
05:25PM 34.2533 -84.2675 181° South 411 473 43,000  Level Atlanta Center
05:26PM 34.1300 -84.2722 182° South 411 473 43,000  Level Atlanta Center
05:27PM 34.0111 -84.2794 183° South 423 487 43,000  Level Atlanta Center
05:28PM 33.8922 -84.2842 182° South 428 493 43,000  Level Atlanta Center
05:29PM 33.7753 -84.2861 181° South 421 484 43,000  Level Atlanta Center
05:30PM 33.6542 -84.2883 181° South 421 484 43,000  Level Atlanta Center
05:31PM 33.5497 -84.2931 182° South 421 484 43,000  Level Atlanta Center
05:32PM 33.4308 -84.2978 182° South 421 484 43,000  Level Atlanta Center
05:33PM 33.3119 -84.2997 181° South 421 484 43,000  Level Atlanta Center
05:34PM 33.1950 -84.3044 182° South 421 484 43,000  Level Atlanta Center
05:35PM 33.0656 -84.3089 182° South 421 484 43,000  Level Atlanta Center
05:36PM 32.9486 -84.3111 181° South 421 484 43,000  Level Atlanta Center
05:37PM 32.8297 -84.3183 183° South 421 484 43,000  Level Atlanta Center
05:38PM 32.7231 -84.3153 179° South 421 484 43,000  Level Atlanta Center
05:39PM 32.6061 -84.3200 182° South 421 484 43,000  Level Atlanta Center
05:40PM 32.4914 -84.3219 181° South 421 484 43,000  Level Atlanta Center
05:41PM 32.3725 -84.3267 182° South 426 490 43,000  Level Atlanta Center
05:43PM 32.1647 -84.3308 181° South 418 481 43,000  Level Jacksonville Center
05:44PM 32.0456 -84.3339 181° South 423 487 43,000  Level Jacksonville Center
05:45PM 31.9308 -84.3369 181° South 423 487 43,000  Level Jacksonville Center
05:46PM 31.8181 -84.3400 181° South 423 487 43,000  Level Jacksonville Center
05:47PM 31.7053 -84.3431 181° South 423 487 43,000  Level Jacksonville Center
05:48PM 31.5886 -84.3194 170° South 423 487 43,000  Level Jacksonville Center
05:49PM 31.4719 -84.2833 165° South 423 487 43,000  Level Jacksonville Center
05:50PM 31.3597 -84.2478 165° South 428 493 43,000  Level Jacksonville Center
05:51PM 31.2306 -84.2094 166° South 435 501 43,000  Level Jacksonville Center
05:52PM 31.1139 -84.1761 166° South 430 495 43,000  Level Jacksonville Center
05:53PM 30.9994 -84.1431 166° South 430 495 43,000  Level Jacksonville Center
05:54PM 30.8850 -84.1078 165° South 430 495 43,000  Level Jacksonville Center
05:55PM 30.7706 -84.0750 166° South 430 495 43,000  Level Jacksonville Center
05:56PM 30.6558 -84.0419 166° South 430 495 43,000  Level Jacksonville Center
05:57PM 30.5644 -84.0119 164° South 430 495 43,000  Level Jacksonville Center
05:58PM 30.4414 -83.9792 167° South 425 489 43,000  Level Jacksonville Center
05:59PM 30.3269 -83.9467 166° South 425 489 43,000  Level Jacksonville Center
06:00PM 30.2122 -83.9117 165° South 425 489 43,000  Level Jacksonville Center
06:01PM 30.0997 -83.8817 167° South 425 489 43,000  Level Jacksonville Center
06:02PM 29.9872 -83.8494 166° South 425 489 43,000  Level Jacksonville Center
06:03PM 29.8728 -83.8147 165° South 425 489 43,000  Level Jacksonville Center
06:04PM 29.7622 -83.7825 166° South 425 489 43,000  Level Jacksonville Center
06:05PM 29.6478 -83.7528 167° South 425 489 43,000  Level Jacksonville Center
06:06PM 29.5372 -83.7186 165° South 420 483 43,000  Level Jacksonville Center
06:07PM 29.4247 -83.6889 167° South 415 478 43,000  Level Jacksonville Center
06:08PM 29.3122 -83.6569 166° South 415 478 43,000  Level Jacksonville Center
06:09PM 29.2039 -83.6253 166° South 415 478 43,000  Level Jacksonville Center
06:10PM 29.0933 -83.5936 166° South 415 478 43,000  Level Jacksonville Center
06:11PM 28.9850 -83.5619 166° South 410 472 43,000  Level Jacksonville Center
06:12PM 28.8789 -83.5328 166° South 404 465 43,000  Level Jacksonville Center
06:13PM 28.7703 -83.5036 167° South 404 465 43,000 -420 Level Jacksonville Center
06:14PM 28.6619 -83.4700 165° South 404 465 42,200 -1,680 Descending Jacksonville Center
06:16PM 28.4328 -83.4061 166° South 417 480 38,000 -2,160 Descending Miami Center
06:17PM 28.3175 -83.3758 167° South 423 487 35,800 -1,500 Descending Miami Center
06:18PM 28.2011 -83.3667 176° South 428 493 35,000 -780 Descending Miami Center
06:19PM 28.0903 -83.3744 184° South 414 476 34,300 -1,140 Descending Miami Center
06:20PM 27.9694 -83.3697 178° South 419 482 32,800 -1,560 Descending Miami Center
06:21PM 27.8461 -83.3300 164° South 432 497 31,200 -1,560 Descending Miami Center
06:22PM 27.7314 -83.2389 145° Southeast 462 532 29,700 -1,560 Descending Miami Center
06:23PM 27.6225 -83.1508 144° Southeast 468 539 28,100 -1,560 Descending Miami Center
06:24PM 27.5117 -83.0631 145° Southeast 486 559 26,600 -1,560 Descending Miami Center
06:25PM 27.4047 -82.9778 145° Southeast 486 559 25,000 -1,620 Descending Miami Center
06:26PM 27.2997 -82.8950 145° Southeast 474 545 23,400 -1,740 Descending Miami Center
06:27PM 27.1967 -82.8128 145° Southeast 469 540 21,600 -1,860 Descending Miami Center
06:28PM 27.0936 -82.7328 145° Southeast 458 527 19,700 -1,860 Descending Miami Center
06:29PM 26.9986 -82.6558 144° Southeast 442 509 17,900 -1,800 Descending Miami Center
06:30PM 26.9014 -82.5836 146° Southeast 432 497 16,200 -1,800 Descending Miami Center
06:31PM 26.8083 -82.5069 144° Southeast 421 484 14,300 -1,800 Descending Miami Center
06:32PM 26.7169 -82.4372 146° Southeast 405 466 12,600 -1,620 Descending Miami Center
06:33PM 26.6217 -82.3656 146° Southeast 388 447 11,100 -1,140 Descending Miami Center
06:34PM 26.5406 -82.3036 146° Southeast 371 427 10,400 -660 Descending Miami Center
06:35PM 26.4592 -82.2467 148° Southeast 351 404 9,800 -660 Descending Miami Center
06:36PM 26.3800 -82.1872 146° Southeast 351 404 9,100 -720 Descending Miami Center
06:37PM 26.3047 -82.1353 148° Southeast 331 381 8,400 -780 Descending Miami Center
06:38PM 26.2375 -82.0836 145° Southeast 311 358 7,600 -1,140 Descending Miami Center
06:39PM 26.1678 -82.0483 156° South 293 337 6,200 -1,500 Descending Miami Center
06:40PM 26.1000 -82.0175 158° South 274 315 4,600 -1,620 Descending Miami Center
06:42PM 26.1210 -81.8392 66° East  Level FlightAware Approximate
06:49PM 26.1500 -81.7667 66° East  Level FlightAware Approximate
06:50PM 26.1524 -81.7756 66° East  Level Estimated
06:51PM 26.1524 -81.7756 66° East  Level Estimated
06:52PM 26.1524 -81.7756 66° East  Level Estimated
06:53PM 26.1524 -81.7756 66° East  Level Estimated
06:54PM 26.1524 -81.7756 66° East  Level Estimated